createdAt,value
2018-07-12T00:00:16.396Z,942.66
2018-07-12T00:01:24.453Z,942.67
2018-07-12T00:02:32.516Z,942.68
2018-07-12T00:03:40.690Z,942.67
2018-07-12T00:04:48.653Z,942.64
2018-07-12T00:05:56.699Z,942.65
2018-07-12T00:07:04.771Z,942.62
2018-07-12T00:08:12.874Z,942.62
2018-07-12T00:09:20.999Z,942.67
2018-07-12T00:10:28.948Z,942.66
2018-07-12T00:11:37.021Z,942.63
2018-07-12T00:12:45.065Z,942.62
2018-07-12T00:13:53.137Z,942.66
2018-07-12T00:15:01.360Z,942.62
2018-07-12T00:16:09.261Z,942.62
2018-07-12T00:17:17.321Z,942.63
2018-07-12T00:18:25.406Z,942.63
2018-07-12T00:19:33.482Z,942.61
2018-07-12T00:20:41.569Z,942.59
2018-07-12T00:21:49.573Z,942.58
2018-07-12T00:22:57.643Z,942.57
2018-07-12T00:24:07.211Z,942.52
2018-07-12T00:25:13.736Z,942.55
2018-07-12T00:26:21.935Z,942.54
2018-07-12T00:27:29.886Z,942.55
2018-07-12T00:28:37.946Z,942.51
2018-07-12T00:29:46.024Z,942.54
2018-07-12T00:30:54.059Z,942.55
2018-07-12T00:32:02.257Z,942.52
2018-07-12T00:33:10.199Z,942.53
2018-07-12T00:34:18.249Z,942.56
2018-07-12T00:35:26.328Z,942.54
2018-07-12T00:36:34.365Z,942.54
2018-07-12T00:37:42.511Z,942.55
2018-07-12T00:38:50.518Z,942.51
2018-07-12T00:39:58.685Z,942.51
2018-07-12T00:41:06.634Z,942.51
2018-07-12T00:42:14.702Z,942.53
2018-07-12T00:43:22.810Z,942.54
2018-07-12T00:44:30.834Z,942.49
2018-07-12T00:45:38.890Z,942.49
2018-07-12T00:46:46.941Z,942.53
2018-07-12T00:47:55.127Z,942.51
2018-07-12T00:49:03.073Z,942.50
2018-07-12T00:50:11.130Z,942.53
2018-07-12T00:51:19.200Z,942.54
2018-07-12T00:52:27.251Z,942.53
2018-07-12T00:53:35.440Z,942.59
2018-07-12T00:54:43.374Z,942.57
2018-07-12T00:55:51.553Z,942.59
2018-07-12T00:56:59.551Z,942.59
2018-07-12T00:58:07.569Z,942.57
2018-07-12T00:59:15.747Z,942.60
2018-07-12T01:00:23.705Z,942.57
2018-07-12T01:01:31.764Z,942.60
2018-07-12T01:02:39.820Z,942.58
2018-07-12T01:03:47.886Z,942.54
2018-07-12T01:04:56.058Z,942.53
2018-07-12T01:06:04.005Z,942.51
2018-07-12T01:07:12.073Z,942.48
2018-07-12T01:08:20.126Z,942.51
2018-07-12T01:09:28.197Z,942.47
2018-07-12T01:10:36.312Z,942.46
2018-07-12T01:11:44.419Z,942.47
2018-07-12T01:12:52.376Z,942.51
2018-07-12T01:14:00.438Z,942.51
2018-07-12T01:15:08.518Z,942.49
2018-07-12T01:16:16.685Z,942.49
2018-07-12T01:17:24.638Z,942.51
2018-07-12T01:18:32.687Z,942.49
2018-07-12T01:19:40.756Z,942.49
2018-07-12T01:20:48.811Z,942.50
2018-07-12T01:21:56.988Z,942.52
2018-07-12T01:23:04.945Z,942.54
2018-07-12T01:24:13.012Z,942.55
2018-07-12T01:25:21.070Z,942.52
2018-07-12T01:26:29.130Z,942.52
2018-07-12T01:27:37.236Z,942.54
2018-07-12T01:28:45.251Z,942.54
2018-07-12T01:29:53.306Z,942.52
2018-07-12T01:31:01.363Z,942.54
2018-07-12T01:32:09.440Z,942.53
2018-07-12T01:33:17.544Z,942.51
2018-07-12T01:34:25.566Z,942.49
2018-07-12T01:35:33.617Z,942.48
2018-07-12T01:36:41.682Z,942.51
2018-07-12T01:37:49.816Z,942.48
2018-07-12T01:38:57.835Z,942.52
2018-07-12T01:40:05.888Z,942.51
2018-07-12T01:41:13.906Z,942.49
2018-07-12T01:42:22.009Z,942.54
2018-07-12T01:43:30.055Z,942.54
2018-07-12T01:44:38.123Z,942.53
2018-07-12T01:45:46.179Z,942.52
2018-07-12T01:46:54.234Z,942.51
2018-07-12T01:48:02.424Z,942.54
2018-07-12T01:49:10.362Z,942.52
2018-07-12T01:50:18.434Z,942.55
2018-07-12T01:51:26.486Z,942.53
2018-07-12T01:52:34.556Z,942.52
2018-07-12T01:53:42.673Z,942.53
2018-07-12T01:54:50.687Z,942.52
2018-07-12T01:55:58.748Z,942.53
2018-07-12T01:57:06.802Z,942.49
2018-07-12T01:58:14.922Z,942.55
2018-07-12T01:59:23.048Z,942.54
2018-07-12T02:00:31.067Z,942.55
2018-07-12T02:01:39.073Z,942.52
2018-07-12T02:02:47.125Z,942.54
2018-07-12T02:03:55.203Z,942.56
2018-07-12T02:05:03.368Z,942.56
2018-07-12T02:06:11.316Z,942.57
2018-07-12T02:07:19.389Z,942.52
2018-07-12T02:08:27.450Z,942.53
2018-07-12T02:09:35.544Z,942.51
2018-07-12T02:10:43.688Z,942.53
2018-07-12T02:11:51.663Z,942.53
2018-07-12T02:12:59.787Z,942.51
2018-07-12T02:14:07.793Z,942.49
2018-07-12T02:15:15.867Z,942.50
2018-07-12T02:16:24.008Z,942.46
2018-07-12T02:17:31.997Z,942.48
2018-07-12T02:18:40.066Z,942.45
2018-07-12T02:19:48.119Z,942.45
2018-07-12T02:20:56.179Z,942.45
2018-07-12T02:22:04.338Z,942.44
2018-07-12T02:23:12.308Z,942.43
2018-07-12T02:24:20.373Z,942.41
2018-07-12T02:25:28.443Z,942.41
2018-07-12T02:26:36.496Z,942.39
2018-07-12T02:27:44.676Z,942.38
2018-07-12T02:28:52.633Z,942.39
2018-07-12T02:30:00.690Z,942.40
2018-07-12T02:31:08.754Z,942.37
2018-07-12T02:32:16.822Z,942.35
2018-07-12T02:33:24.931Z,942.38
2018-07-12T02:34:32.947Z,942.34
2018-07-12T02:35:41.022Z,942.35
2018-07-12T02:36:49.085Z,942.36
2018-07-12T02:37:57.187Z,942.32
2018-07-12T02:39:05.239Z,942.34
2018-07-12T02:40:13.256Z,942.30
2018-07-12T02:41:21.318Z,942.33
2018-07-12T02:42:29.453Z,942.31
2018-07-12T02:43:37.571Z,942.31
2018-07-12T02:44:45.521Z,942.35
2018-07-12T02:45:53.561Z,942.32
2018-07-12T02:47:01.651Z,942.30
2018-07-12T02:48:09.748Z,942.31
2018-07-12T02:49:17.758Z,942.26
2018-07-12T02:50:25.883Z,942.28
2018-07-12T02:51:33.869Z,942.30
2018-07-12T02:52:42.080Z,942.30
2018-07-12T02:53:50.026Z,942.26
2018-07-12T02:54:58.103Z,942.31
2018-07-12T02:56:06.149Z,942.32
2018-07-12T02:57:14.201Z,942.26
2018-07-12T02:58:22.382Z,942.28
2018-07-12T02:59:30.452Z,942.27
2018-07-12T03:00:38.402Z,942.31
2018-07-12T03:01:46.470Z,942.30
2018-07-12T03:02:54.540Z,942.27
2018-07-12T03:04:02.731Z,942.30
2018-07-12T03:05:10.658Z,942.30
2018-07-12T03:06:18.733Z,942.31
2018-07-12T03:07:26.793Z,942.31
2018-07-12T03:08:34.858Z,942.29
2018-07-12T03:09:43.020Z,942.30
2018-07-12T03:10:50.980Z,942.31
2018-07-12T03:11:59.042Z,942.30
2018-07-12T03:13:07.115Z,942.30
2018-07-12T03:14:15.190Z,942.31
2018-07-12T03:15:23.337Z,942.30
2018-07-12T03:16:31.294Z,942.32
2018-07-12T03:17:39.363Z,942.34
2018-07-12T03:18:47.420Z,942.30
2018-07-12T03:19:55.493Z,942.31
2018-07-12T03:21:03.657Z,942.29
2018-07-12T03:22:11.632Z,942.28
2018-07-12T03:23:19.681Z,942.24
2018-07-12T03:24:27.738Z,942.26
2018-07-12T03:25:35.807Z,942.29
2018-07-12T03:26:43.977Z,942.26
2018-07-12T03:27:51.921Z,942.26
2018-07-12T03:28:59.988Z,942.28
2018-07-12T03:30:08.065Z,942.26
2018-07-12T03:31:16.252Z,942.25
2018-07-12T03:32:24.305Z,942.25
2018-07-12T03:33:32.274Z,942.21
2018-07-12T03:34:40.329Z,942.20
2018-07-12T03:35:48.378Z,942.22
2018-07-12T03:36:56.433Z,942.22
2018-07-12T03:38:04.554Z,942.25
2018-07-12T03:39:12.563Z,942.22
2018-07-12T03:40:20.635Z,942.21
2018-07-12T03:41:28.697Z,942.25
2018-07-12T03:42:36.795Z,942.22
2018-07-12T03:43:44.804Z,942.23
2018-07-12T03:44:52.870Z,942.27
2018-07-12T03:46:00.927Z,942.27
2018-07-12T03:47:09.255Z,942.28
2018-07-12T03:48:17.110Z,942.27
2018-07-12T03:49:25.318Z,942.27
2018-07-12T03:50:33.380Z,942.24
2018-07-12T03:51:41.445Z,942.27
2018-07-12T03:52:49.506Z,942.24
2018-07-12T03:53:57.687Z,942.27
2018-07-12T03:55:05.637Z,942.24
2018-07-12T03:56:13.676Z,942.28
2018-07-12T03:57:21.761Z,942.31
2018-07-12T03:58:29.820Z,942.30
2018-07-12T03:59:38.011Z,942.29
2018-07-12T04:00:45.947Z,942.26
2018-07-12T04:01:53.993Z,942.24
2018-07-12T04:03:02.116Z,942.26
2018-07-12T04:04:10.158Z,942.30
2018-07-12T04:05:18.315Z,942.30
2018-07-12T04:06:26.263Z,942.32
2018-07-12T04:07:34.319Z,942.31
2018-07-12T04:08:42.389Z,942.34
2018-07-12T04:09:50.447Z,942.36
2018-07-12T04:10:58.698Z,942.35
2018-07-12T04:12:06.571Z,942.30
2018-07-12T04:13:14.632Z,942.31
2018-07-12T04:14:22.704Z,942.31
2018-07-12T04:15:30.754Z,942.34
2018-07-12T04:16:38.928Z,942.34
2018-07-12T04:17:46.941Z,942.30
2018-07-12T04:18:55.296Z,942.29
2018-07-12T04:20:03.015Z,942.28
2018-07-12T04:21:11.074Z,942.27
2018-07-12T04:22:19.253Z,942.30
2018-07-12T04:23:27.195Z,942.31
2018-07-12T04:24:35.261Z,942.29
2018-07-12T04:25:43.324Z,942.32
2018-07-12T04:26:51.390Z,942.29
2018-07-12T04:27:59.498Z,942.28
2018-07-12T04:29:07.517Z,942.31
2018-07-12T04:30:15.571Z,942.28
2018-07-12T04:31:23.617Z,942.33
2018-07-12T04:32:31.730Z,942.32
2018-07-12T04:33:39.762Z,942.30
2018-07-12T04:34:47.864Z,942.30
2018-07-12T04:35:55.891Z,942.32
2018-07-12T04:37:03.931Z,942.34
2018-07-12T04:38:12.123Z,942.36
2018-07-12T04:39:20.071Z,942.38
2018-07-12T04:40:28.144Z,942.40
2018-07-12T04:41:36.205Z,942.41
2018-07-12T04:42:44.250Z,942.43
2018-07-12T04:43:52.808Z,942.42
2018-07-12T04:45:00.511Z,942.40
2018-07-12T04:46:08.453Z,942.42
2018-07-12T04:47:16.728Z,942.42
2018-07-12T04:48:24.730Z,942.42
2018-07-12T04:49:32.775Z,942.45
2018-07-12T04:50:40.712Z,942.46
2018-07-12T04:51:48.780Z,942.42
2018-07-12T04:52:56.839Z,942.43
2018-07-12T04:54:04.906Z,942.42
2018-07-12T04:55:13.099Z,942.41
2018-07-12T04:56:21.032Z,942.44
2018-07-12T04:57:29.097Z,942.40
2018-07-12T04:58:37.177Z,942.39
2018-07-12T04:59:45.236Z,942.43
2018-07-12T05:00:53.369Z,942.43
2018-07-12T05:02:01.597Z,942.46
2018-07-12T05:03:09.395Z,942.43
2018-07-12T05:04:17.574Z,942.45
2018-07-12T05:05:25.508Z,942.45
2018-07-12T05:06:33.668Z,942.42
2018-07-12T05:07:42.004Z,942.43
2018-07-12T05:08:50.079Z,942.44
2018-07-12T05:09:58.143Z,942.49
2018-07-12T05:11:05.996Z,942.48
2018-07-12T05:12:14.106Z,942.65
2018-07-12T05:13:21.968Z,942.86
2018-07-12T05:14:30.023Z,942.64
2018-07-12T05:15:38.089Z,942.61
2018-07-12T05:16:46.157Z,942.54
2018-07-12T05:17:54.267Z,942.52
2018-07-12T05:19:02.296Z,942.55
2018-07-12T05:20:10.473Z,942.51
2018-07-12T05:21:18.465Z,942.49
2018-07-12T05:22:26.473Z,942.48
2018-07-12T05:23:34.540Z,942.47
2018-07-12T05:24:42.622Z,942.51
2018-07-12T05:25:50.662Z,942.53
2018-07-12T05:26:58.729Z,942.54
2018-07-12T05:28:06.906Z,942.53
2018-07-12T05:29:14.849Z,942.54
2018-07-12T05:30:22.906Z,942.56
2018-07-12T05:31:30.981Z,942.53
2018-07-12T05:32:39.056Z,942.50
2018-07-12T05:33:47.225Z,942.53
2018-07-12T05:34:55.182Z,942.54
2018-07-12T05:36:03.356Z,942.53
2018-07-12T05:37:11.305Z,942.54
2018-07-12T05:38:19.379Z,942.58
2018-07-12T05:39:27.540Z,942.53
2018-07-12T05:40:35.506Z,942.57
2018-07-12T05:41:43.547Z,942.62
2018-07-12T05:42:51.640Z,942.58
2018-07-12T05:43:59.708Z,942.62
2018-07-12T05:45:07.875Z,942.62
2018-07-12T05:46:15.824Z,942.59
2018-07-12T05:47:23.868Z,942.65
2018-07-12T05:48:31.952Z,942.66
2018-07-12T05:49:40.047Z,942.69
2018-07-12T05:50:48.141Z,942.71
2018-07-12T05:51:56.261Z,942.71
2018-07-12T05:53:04.202Z,942.71
2018-07-12T05:54:12.280Z,942.73
2018-07-12T05:55:20.348Z,942.72
2018-07-12T05:56:28.723Z,942.72
2018-07-12T05:57:36.573Z,942.75
2018-07-12T05:58:44.551Z,942.73
2018-07-12T05:59:52.611Z,942.74
2018-07-12T06:01:00.674Z,942.76
2018-07-12T06:02:08.856Z,942.76
2018-07-12T06:03:16.822Z,942.73
2018-07-12T06:04:24.871Z,942.72
2018-07-12T06:05:32.946Z,942.75
2018-07-12T06:06:40.996Z,942.73
2018-07-12T06:07:49.169Z,942.74
2018-07-12T06:08:57.134Z,942.74
2018-07-12T06:10:05.179Z,942.72
2018-07-12T06:11:13.255Z,942.76
2018-07-12T06:12:21.323Z,942.78
2018-07-12T06:13:29.396Z,942.79
2018-07-12T06:14:37.456Z,942.80
2018-07-12T06:15:45.542Z,942.81
2018-07-12T06:16:53.586Z,942.78
2018-07-12T06:18:01.706Z,942.81
2018-07-12T06:19:09.716Z,942.81
2018-07-12T06:20:17.785Z,942.82
2018-07-12T06:21:25.849Z,942.83
2018-07-12T06:22:33.957Z,942.83
2018-07-12T06:23:41.989Z,942.88
2018-07-12T06:24:50.077Z,942.88
2018-07-12T06:25:58.117Z,942.92
2018-07-12T06:27:06.182Z,942.92
2018-07-12T06:28:14.343Z,942.95
2018-07-12T06:29:22.333Z,942.96
2018-07-12T06:30:30.430Z,942.95
2018-07-12T06:31:38.457Z,943.00
2018-07-12T06:32:46.537Z,942.98
2018-07-12T06:33:54.695Z,943.01
2018-07-12T06:35:02.643Z,942.98
2018-07-12T06:36:10.725Z,942.99
2018-07-12T06:37:19.797Z,943.06
2018-07-12T06:38:26.965Z,943.06
2018-07-12T06:39:34.964Z,943.04
2018-07-12T06:40:42.969Z,943.06
2018-07-12T06:41:51.060Z,943.03
2018-07-12T06:42:59.110Z,942.99
2018-07-12T06:44:07.188Z,943.01
2018-07-12T06:45:15.293Z,943.01
2018-07-12T06:46:23.316Z,943.02
2018-07-12T06:47:31.388Z,943.04
2018-07-12T06:48:39.451Z,943.05
2018-07-12T06:49:47.531Z,943.09
2018-07-12T06:50:55.705Z,943.10
2018-07-12T06:52:03.630Z,943.11
2018-07-12T06:53:11.729Z,943.06
2018-07-12T06:54:19.843Z,943.10
2018-07-12T06:55:27.851Z,943.07
2018-07-12T06:56:36.047Z,943.09
2018-07-12T06:57:43.959Z,943.09
2018-07-12T06:58:52.065Z,943.07
2018-07-12T07:00:00.155Z,943.09
2018-07-12T07:01:08.213Z,943.11
2018-07-12T07:02:16.379Z,943.14
2018-07-12T07:03:24.316Z,943.14
2018-07-12T07:04:32.403Z,943.16
2018-07-12T07:05:40.460Z,943.20
2018-07-12T07:06:48.532Z,943.15
2018-07-12T07:07:56.643Z,943.38
2018-07-12T07:09:04.652Z,943.23
2018-07-12T07:10:13.823Z,943.29
2018-07-12T07:11:21.818Z,943.17
2018-07-12T07:12:29.921Z,943.26
2018-07-12T07:13:37.940Z,943.44
2018-07-12T07:14:46.317Z,943.39
2018-07-12T07:15:54.063Z,943.34
2018-07-12T07:17:02.352Z,943.27
2018-07-12T07:18:10.460Z,943.37
2018-07-12T07:19:19.886Z,943.40
2018-07-12T07:20:27.948Z,943.72
2018-07-12T07:21:36.018Z,944.05
2018-07-12T07:22:44.163Z,943.77
2018-07-12T07:23:52.155Z,943.61
2018-07-12T07:26:11.370Z,943.49
2018-07-12T07:27:19.399Z,943.48
2018-07-12T07:28:27.524Z,943.66
2018-07-12T07:29:35.530Z,943.66
2018-07-12T07:33:12.248Z,944.20
2018-07-12T07:34:21.635Z,944.40
2018-07-12T07:35:31.858Z,944.40
2018-07-12T07:36:39.879Z,944.47
2018-07-12T07:37:47.948Z,944.50
2018-07-12T07:38:56.024Z,944.53
2018-07-12T07:40:04.131Z,944.55
2018-07-12T07:41:12.285Z,944.63
2018-07-12T07:42:20.256Z,944.68
2018-07-12T07:43:28.331Z,944.73
2018-07-12T07:44:36.401Z,944.86
2018-07-12T07:45:44.584Z,944.83
2018-07-12T07:46:52.561Z,944.87
2018-07-12T07:48:00.638Z,944.90
2018-07-12T07:49:08.738Z,944.93
2018-07-12T07:50:16.801Z,944.96
2018-07-12T07:51:24.916Z,945.06
2018-07-12T07:52:32.953Z,945.19
2018-07-12T07:53:41.017Z,945.30
2018-07-12T07:54:49.121Z,945.26
2018-07-12T07:55:57.184Z,945.29
2018-07-12T07:57:05.399Z,945.52
2018-07-12T07:58:13.347Z,945.76
2018-07-12T07:59:21.434Z,945.85
2018-07-12T08:00:29.500Z,946.00
2018-07-12T08:01:37.589Z,946.20
2018-07-12T08:02:45.710Z,946.34
2018-07-12T08:03:53.731Z,946.75
2018-07-12T08:05:01.838Z,947.13
2018-07-12T08:06:09.911Z,947.23
2018-07-12T08:07:17.995Z,947.38
2018-07-12T08:08:26.124Z,947.64
2018-07-12T08:09:34.173Z,948.19
2018-07-12T08:10:42.249Z,948.47
2018-07-12T08:11:50.334Z,948.57
2018-07-12T08:12:58.460Z,948.70
2018-07-12T08:14:06.480Z,948.88
2018-07-12T08:15:14.571Z,948.99
2018-07-12T08:16:22.679Z,949.07
2018-07-12T08:17:30.734Z,949.34
2018-07-12T08:18:38.943Z,949.13
2018-07-12T08:19:46.900Z,949.18
2018-07-12T08:20:54.984Z,949.26
2018-07-12T08:22:03.061Z,949.51
2018-07-12T08:23:11.152Z,949.45
2018-07-12T08:24:19.351Z,949.48
2018-07-12T08:25:27.329Z,949.69
2018-07-12T08:27:46.366Z,949.48
2018-07-12T08:28:54.384Z,949.20
2018-07-12T08:30:02.793Z,944.00
2018-07-12T08:31:10.781Z,948.54
2018-07-12T08:32:18.848Z,949.35
2018-07-12T08:33:27.023Z,949.54
2018-07-12T08:34:35.000Z,949.51
2018-07-12T08:35:43.195Z,949.14
2018-07-12T08:36:51.180Z,949.46
2018-07-12T08:37:59.246Z,949.75
2018-07-12T08:39:07.338Z,946.99
2018-07-12T08:40:15.438Z,946.56
2018-07-12T08:41:23.539Z,950.67
2018-07-12T08:42:31.694Z,950.34
2018-07-12T08:43:39.672Z,948.56
2018-07-12T08:44:47.762Z,946.05
2018-07-12T08:45:55.850Z,949.30
2018-07-12T08:47:03.956Z,949.74
2018-07-12T08:48:12.008Z,949.50
2018-07-12T08:49:20.094Z,949.64
2018-07-12T08:50:28.209Z,944.70
2018-07-12T08:51:36.282Z,945.74
2018-07-12T08:52:44.432Z,944.94
2018-07-12T08:53:52.457Z,944.12
2018-07-12T08:55:00.557Z,943.90
2018-07-12T08:56:08.616Z,944.56
2018-07-12T08:57:16.696Z,943.85
2018-07-12T08:58:25.013Z,944.06
2018-07-12T08:59:32.942Z,945.74
2018-07-12T09:00:40.963Z,944.61
2018-07-12T09:01:49.048Z,944.00
2018-07-12T09:02:57.253Z,943.99
2018-07-12T09:04:05.164Z,943.88
2018-07-12T09:05:13.288Z,944.28
2018-07-12T09:06:21.352Z,943.81
2018-07-12T09:07:29.575Z,943.53
2018-07-12T09:08:37.502Z,944.24
2018-07-12T09:09:45.577Z,946.56
2018-07-12T09:10:53.644Z,946.54
2018-07-12T09:12:01.730Z,946.66
2018-07-12T09:13:09.935Z,946.57
2018-07-12T09:14:18.172Z,946.45
2018-07-12T09:15:25.990Z,946.18
2018-07-12T09:16:34.062Z,946.38
2018-07-12T09:17:42.159Z,945.76
2018-07-12T09:18:50.546Z,946.25
2018-07-12T09:19:58.520Z,946.36
2018-07-12T09:21:06.583Z,946.34
2018-07-12T09:22:14.665Z,946.37
2018-07-12T09:23:22.767Z,946.38
2018-07-12T09:24:30.961Z,946.35
2018-07-12T09:25:38.892Z,943.58
2018-07-12T09:26:47.837Z,943.72
2018-07-12T09:27:55.076Z,943.97
2018-07-12T09:29:03.217Z,943.85
2018-07-12T09:30:11.347Z,943.75
2018-07-12T09:31:19.362Z,943.87
2018-07-12T09:32:27.418Z,943.63
2018-07-12T09:33:35.488Z,943.65
2018-07-12T09:34:43.627Z,943.71
2018-07-12T09:35:51.751Z,943.70
2018-07-12T09:36:59.708Z,943.78
2018-07-12T09:38:07.817Z,943.79
2018-07-12T09:39:15.895Z,943.73
2018-07-12T09:40:24.150Z,943.59
2018-07-12T09:41:32.379Z,943.56
2018-07-12T09:42:40.323Z,943.56
2018-07-12T09:43:48.427Z,943.68
2018-07-12T09:44:57.058Z,943.63
2018-07-12T09:46:06.021Z,943.62
2018-07-12T09:47:13.342Z,943.57
2018-07-12T09:48:21.364Z,943.57
2018-07-12T09:49:29.290Z,943.54
2018-07-12T09:50:37.442Z,943.53
2018-07-12T09:51:44.976Z,943.52
2018-07-12T09:52:53.144Z,943.56
2018-07-12T09:54:01.081Z,943.55
2018-07-12T09:55:09.156Z,943.56
2018-07-12T09:56:17.407Z,943.57
2018-07-12T09:57:25.315Z,943.57
2018-07-12T09:58:33.397Z,943.59
2018-07-12T09:59:41.461Z,943.57
2018-07-12T10:00:49.548Z,943.56
2018-07-12T10:01:57.744Z,943.58
2018-07-12T10:03:05.810Z,943.41
2018-07-12T10:04:13.766Z,943.40
2018-07-12T10:05:21.863Z,943.40
2018-07-12T10:06:29.921Z,943.39
2018-07-12T10:07:38.101Z,943.41
2018-07-12T10:08:46.077Z,943.45
2018-07-12T10:09:54.144Z,943.49
2018-07-12T10:11:02.244Z,943.46
2018-07-12T10:12:10.310Z,943.51
2018-07-12T10:13:18.418Z,943.49
2018-07-12T10:14:26.440Z,943.48
2018-07-12T10:15:34.526Z,943.49
2018-07-12T10:16:42.615Z,943.46
2018-07-12T10:17:50.752Z,943.52
2018-07-12T10:18:58.874Z,943.48
2018-07-12T10:20:06.837Z,943.46
2018-07-12T10:21:14.932Z,943.50
2018-07-12T10:22:23.006Z,943.51
2018-07-12T10:23:31.065Z,943.54
2018-07-12T10:24:39.244Z,943.56
2018-07-12T10:25:47.230Z,943.56
2018-07-12T10:26:55.291Z,943.58
2018-07-12T10:28:03.350Z,943.55
2018-07-12T10:29:11.414Z,943.57
2018-07-12T10:30:19.619Z,943.66
2018-07-12T10:31:27.930Z,943.63
2018-07-12T10:32:35.759Z,943.68
2018-07-12T10:33:43.711Z,943.67
2018-07-12T10:34:51.830Z,943.65
2018-07-12T10:35:59.984Z,943.67
2018-07-12T10:37:07.994Z,943.70
2018-07-12T10:38:16.042Z,943.67
2018-07-12T10:39:24.059Z,943.62
2018-07-12T10:40:32.180Z,943.66
2018-07-12T10:41:40.361Z,943.61
2018-07-12T10:42:48.357Z,943.65
2018-07-12T10:43:56.415Z,943.66
2018-07-12T10:45:05.949Z,943.61
2018-07-12T10:46:12.545Z,943.51
2018-07-12T10:47:20.735Z,943.54
2018-07-12T10:48:28.730Z,943.55
2018-07-12T10:49:36.787Z,943.54
2018-07-12T10:50:44.848Z,943.57
2018-07-12T10:51:52.934Z,943.58
2018-07-12T10:53:01.114Z,943.52
2018-07-12T10:54:09.082Z,943.57
2018-07-12T10:55:17.132Z,943.58
2018-07-12T10:56:25.223Z,943.54
2018-07-12T10:57:33.355Z,943.43
2018-07-12T10:58:41.385Z,943.41
2018-07-12T10:59:49.678Z,943.43
2018-07-12T11:00:57.565Z,943.42
2018-07-12T11:02:05.605Z,943.38
2018-07-12T11:03:13.761Z,943.41
2018-07-12T11:04:21.811Z,943.37
2018-07-12T11:05:29.834Z,943.44
2018-07-12T11:06:37.906Z,943.40
2018-07-12T11:07:46.002Z,943.41
2018-07-12T11:08:54.015Z,943.38
2018-07-12T11:10:02.142Z,943.41
2018-07-12T11:11:10.205Z,943.44
2018-07-12T11:12:18.296Z,943.48
2018-07-12T11:13:26.461Z,943.52
2018-07-12T11:14:34.406Z,943.51
2018-07-12T11:15:42.555Z,943.51
2018-07-12T11:16:50.575Z,943.57
2018-07-12T11:17:58.642Z,943.49
2018-07-12T11:19:06.842Z,943.50
2018-07-12T11:20:14.814Z,943.51
2018-07-12T11:21:22.874Z,943.53
2018-07-12T11:22:30.942Z,943.56
2018-07-12T11:23:39.000Z,943.43
2018-07-12T11:24:47.189Z,943.49
2018-07-12T11:25:55.384Z,943.49
2018-07-12T11:27:03.450Z,943.50
2018-07-12T11:28:11.525Z,943.49
2018-07-12T11:29:19.630Z,943.51
2018-07-12T11:30:27.709Z,943.50
2018-07-12T11:31:35.746Z,943.47
2018-07-12T11:32:43.805Z,943.52
2018-07-12T11:33:51.884Z,943.48
2018-07-12T11:35:00.075Z,943.49
2018-07-12T11:36:08.136Z,943.46
2018-07-12T11:37:16.110Z,943.48
2018-07-12T11:38:24.175Z,943.48
2018-07-12T11:39:32.269Z,943.47
2018-07-12T11:40:40.345Z,943.49
2018-07-12T11:41:48.511Z,943.50
2018-07-12T11:42:56.489Z,943.52
2018-07-12T11:44:04.550Z,943.56
2018-07-12T11:45:12.661Z,943.52
2018-07-12T11:46:20.690Z,943.57
2018-07-12T11:47:28.879Z,943.60
2018-07-12T11:48:36.868Z,943.69
2018-07-12T11:49:44.937Z,943.65
2018-07-12T11:50:53.110Z,943.60
2018-07-12T11:52:01.080Z,943.53
2018-07-12T11:53:09.237Z,943.50
2018-07-12T11:54:17.228Z,943.44
2018-07-12T11:55:25.310Z,943.44
2018-07-12T11:56:33.373Z,943.39
2018-07-12T11:57:41.561Z,943.44
2018-07-12T11:58:49.570Z,943.46
2018-07-12T11:59:57.603Z,943.43
2018-07-12T12:01:05.676Z,943.46
2018-07-12T12:02:13.774Z,943.49
2018-07-12T12:03:21.933Z,943.44
2018-07-12T12:04:29.919Z,943.34
2018-07-12T12:05:37.978Z,943.37
2018-07-12T12:06:46.041Z,943.39
2018-07-12T12:07:54.085Z,943.34
2018-07-12T12:09:02.311Z,943.37
2018-07-12T12:10:10.271Z,943.35
2018-07-12T12:11:18.333Z,943.35
2018-07-12T12:12:26.408Z,943.33
2018-07-12T12:13:34.478Z,943.39
2018-07-12T12:14:42.650Z,943.41
2018-07-12T12:15:50.651Z,943.40
2018-07-12T12:16:58.718Z,943.39
2018-07-12T12:18:06.801Z,943.35
2018-07-12T12:19:15.180Z,943.40
2018-07-12T12:20:23.244Z,943.42
2018-07-12T12:21:31.221Z,943.37
2018-07-12T12:22:39.301Z,943.36
2018-07-12T12:23:47.373Z,943.37
2018-07-12T12:24:55.435Z,943.41
2018-07-12T12:26:03.630Z,943.41
2018-07-12T12:27:11.596Z,943.44
2018-07-12T12:28:19.642Z,943.44
2018-07-12T12:29:27.732Z,943.37
2018-07-12T12:30:35.805Z,943.35
2018-07-12T12:31:43.999Z,943.32
2018-07-12T12:32:51.968Z,943.34
2018-07-12T12:34:00.017Z,943.32
2018-07-12T12:35:08.214Z,943.33
2018-07-12T12:36:16.186Z,943.30
2018-07-12T12:37:24.356Z,943.28
2018-07-12T12:38:32.320Z,943.26
2018-07-12T12:39:40.406Z,943.23
2018-07-12T12:40:48.466Z,943.17
2018-07-12T12:41:56.590Z,943.13
2018-07-12T12:43:04.665Z,943.13
2018-07-12T12:44:12.713Z,943.12
2018-07-12T12:45:20.761Z,943.15
2018-07-12T12:46:28.852Z,943.13
2018-07-12T12:47:36.976Z,943.20
2018-07-12T12:48:44.996Z,943.19
2018-07-12T12:49:53.092Z,943.21
2018-07-12T12:51:01.254Z,943.17
2018-07-12T12:52:09.253Z,943.18
2018-07-12T12:53:17.422Z,943.18
2018-07-12T12:54:25.371Z,943.20
2018-07-12T12:55:33.436Z,943.20
2018-07-12T12:56:41.524Z,943.23
2018-07-12T12:57:49.620Z,943.25
2018-07-12T12:58:57.954Z,943.23
2018-07-12T13:00:05.835Z,943.21
2018-07-12T13:01:13.862Z,943.18
2018-07-12T13:02:21.971Z,943.19
2018-07-12T13:03:29.999Z,943.24
2018-07-12T13:04:38.174Z,943.20
2018-07-12T13:05:46.134Z,943.21
2018-07-12T13:06:54.328Z,943.11
2018-07-12T13:08:02.325Z,943.13
2018-07-12T13:09:10.350Z,943.22
2018-07-12T13:10:18.522Z,943.24
2018-07-12T13:11:26.500Z,943.18
2018-07-12T13:12:34.541Z,943.17
2018-07-12T13:13:42.652Z,943.16
2018-07-12T13:14:50.740Z,943.15
2018-07-12T13:15:59.031Z,943.21
2018-07-12T13:17:06.869Z,943.22
2018-07-12T13:18:14.949Z,943.19
2018-07-12T13:19:23.021Z,943.09
2018-07-12T13:20:31.097Z,943.12
2018-07-12T13:21:39.279Z,943.17
2018-07-12T13:22:47.367Z,943.19
2018-07-12T13:23:55.338Z,943.22
2018-07-12T13:25:03.380Z,943.27
2018-07-12T13:26:11.546Z,943.25
2018-07-12T13:27:19.643Z,943.23
2018-07-12T13:28:27.595Z,943.22
2018-07-12T13:29:35.680Z,943.24
2018-07-12T13:30:43.722Z,943.20
2018-07-12T13:31:51.871Z,943.19
2018-07-12T13:33:00.021Z,943.20
2018-07-12T13:34:08.019Z,943.20
2018-07-12T13:35:16.052Z,943.21
2018-07-12T13:36:24.131Z,943.17
2018-07-12T13:37:32.328Z,943.25
2018-07-12T13:38:40.318Z,943.19
2018-07-12T13:39:48.390Z,943.22
2018-07-12T13:40:56.493Z,943.21
2018-07-12T13:42:04.525Z,943.27
2018-07-12T13:43:12.707Z,943.23
2018-07-12T13:44:20.682Z,943.21
2018-07-12T13:45:28.739Z,943.26
2018-07-12T13:46:36.802Z,943.28
2018-07-12T13:47:44.888Z,943.19
2018-07-12T13:48:53.062Z,943.20
2018-07-12T13:50:01.028Z,943.19
2018-07-12T13:51:09.092Z,943.18
2018-07-12T13:52:17.276Z,943.20
2018-07-12T13:53:25.381Z,943.14
2018-07-12T13:54:33.381Z,943.20
2018-07-12T13:55:41.396Z,943.22
2018-07-12T13:56:49.494Z,943.25
2018-07-12T13:57:57.575Z,943.23
2018-07-12T13:59:05.665Z,943.27
2018-07-12T14:00:13.798Z,943.26
2018-07-12T14:01:21.805Z,943.21
2018-07-12T14:02:29.871Z,943.16
2018-07-12T14:03:37.931Z,943.12
2018-07-12T14:04:46.010Z,943.13
2018-07-12T14:05:54.253Z,943.11
2018-07-12T14:07:02.153Z,943.11
2018-07-12T14:08:10.340Z,943.14
2018-07-12T14:09:18.282Z,943.12
2018-07-12T14:10:26.375Z,943.13
2018-07-12T14:11:34.602Z,943.15
2018-07-12T14:12:42.537Z,943.11
2018-07-12T14:13:50.603Z,943.13